Virtual Norwegian is not affiliated with Norwegian Air Shuttle in any way.
If you are looking for the real "Norwegian", or you wish to book Norwegian flights, please visit Norwegian.com


We use cookies to ensure you get the best experience on our website.   ACCEPT

ESNU - UME - Umea (Umea)

General Info Alternate Airport
ICAO: ESNU Elevation: 24 ft ICAO: ESNO
IATA: UME Country: Sweden IATA: OER
City: Umea Charts: Log in to view charts City: Ornskoldsvik
Name: Umea Hub: No Name Ornskoldsvik
General Info
ICAO: ESNU
IATA: UME
City: Umea
Name: Umea
Elevation: 24 ft
Country: Sweden
Charts: Log in to view charts
Hub: No
 
Alternate Airport
ICAO: ESNO
IATA: OER
City: Ornskoldsvik
Name: Ornskoldsvik

Weather
241620Z 18008KT CAVOK 03/02 Q0996 R14/19//65
Weather
241620Z 18008KT CAVOK 03/02 Q0996 R14/19//65

Runway Info
14
Length ILS/LOC Course
2302 m 109.90 132
32
Length ILS/LOC Course
2302 m 110.70 312

NOTAMs
NOTAMs currently unavailable.
NOTAMs
NOTAMs currently unavailable

Route map
Airport
Airport (hub)